Terminal Aerodrome Forecast
Issued by NWS Sterling, VA

Current Version | Previous Version | Text Only | Print | Product List | Glossary Off
Versions: 1 2 3 4 5 6 7 8 9 10 11 12 13 14 15 16 17 18 19 20 21 22 23 24

000
FTUS41 KLWX 291700 RRA
TAFMRB
TAF
KMRB 291754Z 2918/3018 VRB03KT P6SM BKN150
     FM300800 VRB03KT 5SM BR OVC030
     FM301400 13003KT P6SM OVC100=

USA.gov is the U.S. government's official web portal to all federal, state and local government web resources and services.